Time;durP1;ratioP1;P1;durP2;ratioP2;P2;SDS_P1;SDS_P2;PMS_P1;PMS_P2;Temp;Humidity;BMP_temperature;BMP_pressure;BME280_temperature;BME280_humidity;BME280_pressure;Samples;Min_cycle;Max_cycle;Signal;HPM_P1;HPM_P2
2020/12/24 00:02:20;;;;;;;4.00;1.92;;;9.20;96.70;;;;;;5066252;28;27380;-44
2020/12/24 00:05:05;;;;;;;4.05;2.10;;;9.20;96.70;;;;;;5065873;28;27361;-46
2020/12/24 00:07:49;;;;;;;4.20;2.13;;;9.20;96.70;;;;;;5066324;28;27385;-45
2020/12/24 00:10:34;;;;;;;4.68;2.08;;;9.20;96.70;;;;;;5065539;28;27392;-44
2020/12/24 00:13:19;;;;;;;5.25;2.17;;;9.10;96.70;;;;;;5066095;28;27416;-44
2020/12/24 00:16:03;;;;;;;5.65;2.25;;;9.10;96.70;;;;;;5066192;28;27380;-46
2020/12/24 00:18:48;;;;;;;3.20;1.83;;;9.10;96.70;;;;;;5065729;28;27328;-44
2020/12/24 00:21:38;;;;;;;3.42;1.90;;;9.10;96.80;;;;;;5051136;28;27380;-44
2020/12/24 00:24:23;;;;;;;4.97;2.30;;;9.10;96.80;;;;;;5066063;28;27424;-44
2020/12/24 00:27:08;;;;;;;3.40;1.50;;;9.10;96.80;;;;;;5065785;28;27483;-45
2020/12/24 00:29:52;;;;;;;3.20;1.50;;;9.10;96.80;;;;;;5065792;28;27412;-44
2020/12/24 00:32:36;;;;;;;4.90;1.60;;;9.10;96.90;;;;;;5065703;28;27447;-43
2020/12/24 00:35:21;;;;;;;3.25;1.48;;;9.10;96.90;;;;;;5065748;28;27963;-44
2020/12/24 00:38:08;;;;;;;4.05;1.80;;;9.10;96.90;;;;;;5065381;28;27419;-44
2020/12/24 00:40:54;;;;;;;4.93;1.77;;;9.10;96.80;;;;;;5065590;28;27451;-44
2020/12/24 00:43:39;;;;;;;2.67;1.30;;;9.10;96.80;;;;;;5065759;28;27407;-44
2020/12/24 00:46:23;;;;;;;4.47;1.23;;;9.10;96.80;;;;;;5065395;28;27471;-44
2020/12/24 00:49:08;;;;;;;2.55;1.48;;;9.10;96.80;;;;;;5047417;28;27467;-43
2020/12/24 00:51:53;;;;;;;3.22;1.90;;;9.10;96.80;;;;;;5047221;28;27459;-44
2020/12/24 00:54:37;;;;;;;1.60;1.20;;;9.10;96.80;;;;;;5064742;28;27395;-44
2020/12/24 00:57:23;;;;;;;3.38;1.52;;;9.10;96.80;;;;;;5046989;28;27459;-44
2020/12/24 01:00:08;;;;;;;2.63;1.65;;;9.10;96.80;;;;;;5065225;28;27492;-45
2020/12/24 01:02:53;;;;;;;2.60;1.40;;;9.10;96.80;;;;;;5065534;28;27501;-45
2020/12/24 01:05:37;;;;;;;2.63;1.48;;;9.10;96.80;;;;;;5064985;28;27450;-45
2020/12/24 01:08:22;;;;;;;3.75;1.38;;;9.10;96.70;;;;;;5065058;28;27981;-46
2020/12/24 01:11:06;;;;;;;4.10;1.45;;;9.10;96.80;;;;;;5065456;28;27429;-44
2020/12/24 01:13:50;;;;;;;3.80;1.20;;;9.10;96.90;;;;;;5065406;28;27331;-45
2020/12/24 01:16:35;;;;;;;2.85;1.48;;;9.10;96.90;;;;;;5064318;28;27357;-46
2020/12/24 01:19:20;;;;;;;1.85;1.00;;;9.10;96.90;;;;;;5064863;28;27353;-45
2020/12/24 01:22:04;;;;;;;1.08;0.90;;;9.10;96.90;;;;;;5065141;28;27396;-46
2020/12/24 01:24:48;;;;;;;0.77;0.65;;;9.00;96.90;;;;;;5064951;28;27336;-45
2020/12/24 01:27:33;;;;;;;2.45;0.88;;;9.00;96.80;;;;;;5064857;28;27380;-44
2020/12/24 01:30:17;;;;;;;2.60;0.90;;;9.00;96.70;;;;;;5064987;28;27379;-44
2020/12/24 01:33:02;;;;;;;0.60;0.40;;;9.00;96.60;;;;;;5064407;28;27419;-44
2020/12/24 01:35:47;;;;;;;5.57;0.70;;;8.90;96.40;;;;;;5046646;28;27338;-44
2020/12/24 01:38:31;;;;;;;2.15;0.60;;;8.90;96.30;;;;;;5049429;28;27451;-45
2020/12/24 01:41:15;;;;;;;0.52;0.52;;;8.90;96.20;;;;;;5064889;28;27440;-43
2020/12/24 01:44:00;;;;;;;0.93;0.68;;;8.80;96.10;;;;;;5064757;28;27456;-44
2020/12/24 01:46:45;;;;;;;1.20;0.47;;;8.80;96.00;;;;;;5064615;28;27416;-44
2020/12/24 01:49:29;;;;;;;1.73;0.60;;;8.80;95.90;;;;;;5064748;28;27417;-44
2020/12/24 01:52:34;;;;;;;0.90;0.50;;;8.70;95.70;;;;;;5064680;28;27487;-44
2020/12/24 01:55:18;;;;;;;3.15;0.60;;;8.70;95.60;;;;;;5063572;28;27615;-45
2020/12/24 01:58:03;;;;;;;0.40;0.40;;;8.70;95.50;;;;;;5049507;28;27487;-44
2020/12/24 02:00:47;;;;;;;0.70;0.60;;;8.60;95.40;;;;;;5064135;28;27412;-44
2020/12/24 02:03:32;;;;;;;1.50;0.55;;;8.60;95.40;;;;;;5064237;28;28030;-45
2020/12/24 02:06:17;;;;;;;2.50;0.40;;;8.60;95.40;;;;;;5064473;28;27429;-44
2020/12/24 02:09:02;;;;;;;2.10;0.65;;;8.50;95.40;;;;;;5064190;28;27475;-44
2020/12/24 02:11:46;;;;;;;0.82;0.30;;;8.50;95.50;;;;;;5064168;28;27403;-45
2020/12/24 02:14:30;;;;;;;2.95;0.40;;;8.50;95.70;;;;;;5064130;28;27388;-42
2020/12/24 02:17:15;;;;;;;1.52;0.50;;;8.50;95.80;;;;;;5064009;28;27403;-44
2020/12/24 02:19:59;;;;;;;4.20;0.73;;;8.50;95.90;;;;;;5064100;28;27341;-42
2020/12/24 02:22:44;;;;;;;1.48;0.60;;;8.40;96.00;;;;;;5064257;28;27324;-44
2020/12/24 02:25:29;;;;;;;1.60;0.70;;;8.40;96.10;;;;;;5064223;28;27431;-44
2020/12/24 02:28:13;;;;;;;2.92;0.50;;;8.40;96.20;;;;;;5062252;28;27365;-44
2020/12/24 02:30:58;;;;;;;0.60;0.55;;;8.40;96.30;;;;;;5063941;28;27388;-44
2020/12/24 02:33:42;;;;;;;3.28;0.40;;;8.40;96.30;;;;;;5045761;28;27318;-45
2020/12/24 02:36:27;;;;;;;3.50;0.45;;;8.30;96.40;;;;;;5035101;28;27850;-45
2020/12/24 02:39:12;;;;;;;0.85;0.30;;;8.30;96.50;;;;;;5063575;28;27341;-44
2020/12/24 02:41:56;;;;;;;2.13;0.65;;;8.30;96.50;;;;;;5063834;28;27411;-44
2020/12/24 02:44:40;;;;;;;3.03;0.63;;;8.30;96.60;;;;;;5063730;28;27396;-44
2020/12/24 02:47:25;;;;;;;0.38;0.35;;;8.30;96.60;;;;;;5063664;28;27432;-46
2020/12/24 02:50:10;;;;;;;2.40;0.47;;;8.30;96.70;;;;;;5063874;28;27481;-46
2020/12/24 02:52:54;;;;;;;0.88;0.30;;;8.20;96.70;;;;;;5048681;28;27493;-45
2020/12/24 02:55:39;;;;;;;0.30;0.30;;;8.20;96.80;;;;;;5062286;28;27408;-44
2020/12/24 02:58:23;;;;;;;0.63;0.50;;;8.20;96.80;;;;;;5063635;28;27471;-44
2020/12/24 03:01:08;;;;;;;5.07;0.60;;;8.20;96.80;;;;;;5063442;28;27444;-44
2020/12/24 03:03:52;;;;;;;1.05;0.50;;;8.20;96.90;;;;;;5063762;28;26937;-44
2020/12/24 03:06:37;;;;;;;1.02;0.50;;;8.20;96.90;;;;;;5063465;28;27518;-44
2020/12/24 03:09:21;;;;;;;7.53;0.55;;;8.10;96.90;;;;;;5048478;28;27947;-44
2020/12/24 03:12:05;;;;;;;0.70;0.40;;;8.10;96.90;;;;;;5063688;28;27401;-44
2020/12/24 03:14:53;;;;;;;0.60;0.35;;;8.10;96.90;;;;;;5060249;28;26951;-44
2020/12/24 03:17:38;;;;;;;3.33;0.57;;;8.10;96.90;;;;;;5063490;28;27474;-44
2020/12/24 03:20:23;;;;;;;1.00;0.40;;;8.10;96.90;;;;;;5063533;28;28073;-44
2020/12/24 03:23:08;;;;;;;2.42;0.70;;;8.00;97.00;;;;;;5062765;28;27447;-44
2020/12/24 03:25:52;;;;;;;2.45;0.60;;;8.00;97.00;;;;;;5063523;28;27499;-43
2020/12/24 03:28:37;;;;;;;0.40;0.40;;;8.00;97.00;;;;;;5063447;28;27428;-44
2020/12/24 03:31:22;;;;;;;1.00;0.40;;;8.00;97.00;;;;;;5063373;28;27968;-44
2020/12/24 03:34:07;;;;;;;1.20;0.40;;;8.00;97.00;;;;;;5063064;28;27522;-45
2020/12/24 03:36:51;;;;;;;0.73;0.50;;;8.00;97.00;;;;;;5063328;28;27634;-44
2020/12/24 03:39:36;;;;;;;0.60;0.40;;;8.00;97.00;;;;;;5065210;28;27380;-45
2020/12/24 03:42:20;;;;;;;0.88;0.43;;;8.00;97.10;;;;;;5066452;28;27337;-44
2020/12/24 03:45:05;;;;;;;1.75;0.47;;;8.00;97.10;;;;;;5066399;28;27393;-44
2020/12/24 03:47:49;;;;;;;2.08;0.68;;;8.00;97.10;;;;;;5066470;28;27414;-43
2020/12/24 03:50:34;;;;;;;0.50;0.50;;;7.90;97.10;;;;;;5066025;28;27383;-44
2020/12/24 03:53:19;;;;;;;1.08;0.50;;;7.90;97.10;;;;;;5066291;28;27388;-44
2020/12/24 03:56:04;;;;;;;1.02;0.50;;;7.90;97.10;;;;;;5066276;28;27424;-43
2020/12/24 03:58:48;;;;;;;0.40;0.40;;;7.90;97.10;;;;;;5066120;28;27359;-43
2020/12/24 04:01:33;;;;;;;0.40;0.20;;;7.90;97.10;;;;;;5066239;28;27391;-43
2020/12/24 04:04:17;;;;;;;2.03;0.50;;;7.90;97.10;;;;;;5066156;28;27382;-43
2020/12/24 04:07:02;;;;;;;2.42;0.50;;;7.90;97.10;;;;;;5066399;28;27378;-43
2020/12/24 04:09:46;;;;;;;0.77;0.43;;;7.90;97.10;;;;;;5066147;28;27440;-43
2020/12/24 04:12:31;;;;;;;0.80;0.70;;;7.90;97.10;;;;;;5066320;28;27419;-43
2020/12/24 04:15:15;;;;;;;3.03;1.00;;;7.90;97.10;;;;;;5065984;28;27408;-45
2020/12/24 04:18:00;;;;;;;3.58;0.82;;;7.90;97.10;;;;;;5064943;28;27556;-44
2020/12/24 04:20:44;;;;;;;1.75;0.90;;;7.90;97.20;;;;;;5066230;28;27446;-44
2020/12/24 04:23:29;;;;;;;3.85;0.75;;;7.90;97.10;;;;;;5065910;28;27443;-44
2020/12/24 04:26:20;;;;;;;3.83;0.80;;;7.90;97.10;;;;;;5065817;28;27428;-43
2020/12/24 04:29:05;;;;;;;0.90;0.63;;;7.90;97.10;;;;;;5066038;28;27583;-44
2020/12/24 04:31:49;;;;;;;1.95;0.43;;;7.80;97.00;;;;;;5066097;28;27329;-43
2020/12/24 04:34:34;;;;;;;1.55;0.77;;;7.80;97.00;;;;;;5065741;28;27341;-44
2020/12/24 04:37:19;;;;;;;0.50;0.47;;;7.80;97.00;;;;;;5062329;28;27377;-45
2020/12/24 04:40:03;;;;;;;2.40;0.55;;;7.80;97.00;;;;;;5065838;28;27380;-43
2020/12/24 04:42:48;;;;;;;0.40;0.40;;;7.80;97.00;;;;;;5065650;28;27411;-43
2020/12/24 04:45:33;;;;;;;0.88;0.43;;;7.70;96.90;;;;;;5050763;28;27416;-43
2020/12/24 04:48:19;;;;;;;1.08;0.47;;;7.70;96.90;;;;;;5065447;28;27423;-44
2020/12/24 04:51:03;;;;;;;0.50;0.40;;;7.60;96.80;;;;;;5064600;28;27363;-43
2020/12/24 04:53:48;;;;;;;1.15;0.40;;;7.60;96.70;;;;;;5047391;28;27673;-43
2020/12/24 04:56:33;;;;;;;0.35;0.35;;;7.50;96.60;;;;;;5050369;28;27392;-43
2020/12/24 04:59:18;;;;;;;0.50;0.20;;;7.50;96.50;;;;;;5064971;28;27379;-44
2020/12/24 05:02:02;;;;;;;1.90;0.45;;;7.40;96.50;;;;;;5050402;28;27611;-43
2020/12/24 05:04:48;;;;;;;0.22;0.20;;;7.40;96.60;;;;;;5065338;28;27388;-43
2020/12/24 05:07:32;;;;;;;0.50;0.25;;;7.30;96.50;;;;;;5065443;28;27376;-44
2020/12/24 05:10:17;;;;;;;0.75;0.40;;;7.30;96.50;;;;;;5065096;28;27399;-43
2020/12/24 05:13:28;;;;;;;0.30;0.30;;;7.20;96.40;;;;;;5064871;28;27503;-43
2020/12/24 05:16:15;;;;;;;0.95;0.32;;;7.20;96.50;;;;;;5062144;28;27468;-43
2020/12/24 05:19:10;;;;;;;0.93;0.43;;;7.20;96.60;;;;;;5064743;28;27415;-42
2020/12/24 05:21:55;;;;;;;0.73;0.50;;;7.20;96.60;;;;;;5065261;28;27457;-43
2020/12/24 05:24:40;;;;;;;2.50;0.77;;;7.10;96.70;;;;;;5064849;28;27424;-44
2020/12/24 05:27:25;;;;;;;0.98;0.50;;;7.10;96.80;;;;;;5065163;28;27401;-43
2020/12/24 05:30:09;;;;;;;1.55;0.77;;;7.10;96.80;;;;;;5065130;28;27400;-43
2020/12/24 05:32:54;;;;;;;1.55;0.60;;;7.10;96.90;;;;;;5065018;28;27893;-43
2020/12/24 05:35:38;;;;;;;1.33;0.65;;;7.10;96.80;;;;;;5065026;28;27463;-43
2020/12/24 05:38:34;;;;;;;3.13;0.77;;;7.00;96.80;;;;;;5049624;28;27523;-41
2020/12/24 05:41:33;;;;;;;1.50;0.55;;;7.00;96.70;;;;;;5064114;28;27485;-44
2020/12/24 05:44:18;;;;;;;0.68;0.57;;;7.00;96.60;;;;;;5064797;28;27401;-43
2020/12/24 05:47:03;;;;;;;1.40;0.63;;;6.90;96.60;;;;;;5064806;28;27321;-44
2020/12/24 05:49:48;;;;;;;1.88;0.85;;;6.80;96.40;;;;;;5064567;28;27385;-43
2020/12/24 05:52:32;;;;;;;1.60;1.10;;;6.80;96.40;;;;;;5064486;28;27404;-44
2020/12/24 05:55:16;;;;;;;3.50;1.35;;;6.70;96.30;;;;;;5064244;28;27500;-45
2020/12/24 05:58:01;;;;;;;1.25;0.85;;;6.70;96.30;;;;;;5064309;28;27532;-44
2020/12/24 06:00:46;;;;;;;2.33;1.73;;;6.70;96.30;;;;;;5032240;28;27409;-43
2020/12/24 06:03:35;;;;;;;4.57;1.50;;;6.70;96.40;;;;;;5064365;28;27340;-43
2020/12/24 06:06:20;;;;;;;2.83;0.98;;;6.60;96.50;;;;;;5064009;28;27376;-44
2020/12/24 06:09:04;;;;;;;4.55;1.13;;;6.60;96.60;;;;;;5049653;28;27377;-42
2020/12/24 06:11:51;;;;;;;2.83;1.02;;;6.60;96.70;;;;;;5035391;28;27443;-43
2020/12/24 06:14:35;;;;;;;2.75;1.73;;;6.60;96.70;;;;;;5061242;28;27348;-43
2020/12/24 06:17:21;;;;;;;2.80;1.10;;;6.60;96.80;;;;;;5049240;28;27383;-44
2020/12/24 06:20:06;;;;;;;6.47;1.25;;;6.60;97.00;;;;;;5064316;28;27337;-43
2020/12/24 06:22:50;;;;;;;6.85;1.20;;;6.70;97.00;;;;;;5049443;28;27348;-43
2020/12/24 06:25:34;;;;;;;5.00;1.08;;;6.70;97.10;;;;;;5049494;28;27371;-43
2020/12/24 06:28:19;;;;;;;6.75;1.35;;;6.70;97.10;;;;;;5045980;28;27376;-43
2020/12/24 06:31:03;;;;;;;2.40;1.20;;;6.70;97.10;;;;;;5032059;28;27513;-43
2020/12/24 06:33:48;;;;;;;2.03;1.30;;;6.70;97.10;;;;;;5049326;28;27365;-43
2020/12/24 06:36:36;;;;;;;4.20;1.85;;;6.70;97.00;;;;;;5046143;28;27381;-44
2020/12/24 06:39:38;;;;;;;3.10;1.17;;;6.70;97.00;;;;;;5045603;28;27457;-43
2020/12/24 06:42:42;;;;;;;5.18;1.27;;;6.70;96.90;;;;;;5063752;28;27498;-43
2020/12/24 06:45:29;;;;;;;7.20;1.40;;;6.60;96.80;;;;;;5064076;28;27482;-42
2020/12/24 06:48:16;;;;;;;3.30;1.15;;;6.60;96.70;;;;;;5064087;28;27430;-42
2020/12/24 06:51:04;;;;;;;5.28;1.25;;;6.60;96.70;;;;;;5060672;28;27939;-43
2020/12/24 06:53:48;;;;;;;4.05;1.20;;;6.50;96.60;;;;;;5063210;28;27483;-43
2020/12/24 06:56:34;;;;;;;4.35;2.15;;;6.50;96.60;;;;;;5049055;28;27439;-43
2020/12/24 06:59:21;;;;;;;4.35;1.92;;;6.50;96.60;;;;;;5063298;28;27508;-43
2020/12/24 07:02:06;;;;;;;2.50;1.13;;;6.50;96.60;;;;;;5063195;28;27489;-43
2020/12/24 07:04:51;;;;;;;4.88;1.30;;;6.40;96.50;;;;;;5063730;28;27464;-43
2020/12/24 07:07:45;;;;;;;3.65;1.10;;;6.40;96.60;;;;;;5063490;28;27484;-44
2020/12/24 07:10:46;;;;;;;3.25;1.27;;;6.40;96.60;;;;;;5063672;28;27458;-43
2020/12/24 07:13:33;;;;;;;6.38;1.77;;;6.40;96.70;;;;;;5045858;28;27839;-43
2020/12/24 07:16:18;;;;;;;2.90;1.00;;;6.40;96.80;;;;;;5066900;28;27515;-43
2020/12/24 07:19:02;;;;;;;4.72;0.95;;;6.40;96.80;;;;;;5051985;28;27490;-41
2020/12/24 07:21:56;;;;;;;6.88;1.50;;;6.50;97.00;;;;;;5067199;28;27334;-43
2020/12/24 07:24:40;;;;;;;3.40;1.50;;;6.50;97.00;;;;;;5067037;28;27827;-44
2020/12/24 07:27:24;;;;;;;7.65;1.38;;;6.50;97.00;;;;;;5066443;28;27382;-44
2020/12/24 07:30:09;;;;;;;5.25;1.52;;;6.50;97.00;;;;;;5067021;28;27375;-43
2020/12/24 07:32:54;;;;;;;3.70;1.23;;;6.50;97.00;;;;;;5066965;28;27316;-43
2020/12/24 07:35:43;;;;;;;2.90;1.23;;;6.60;97.10;;;;;;5066882;28;27402;-44
2020/12/24 07:38:29;;;;;;;2.65;1.10;;;6.60;97.10;;;;;;5066659;28;27473;-44
2020/12/24 07:41:15;;;;;;;7.15;1.58;;;6.60;97.00;;;;;;5066609;28;27480;-45
2020/12/24 07:44:08;;;;;;;8.43;2.78;;;6.60;97.10;;;;;;5066498;28;27525;-44
2020/12/24 07:46:59;;;;;;;6.40;1.83;;;6.60;97.10;;;;;;5066399;28;27834;-44
2020/12/24 07:49:51;;;;;;;9.98;2.00;;;6.70;97.10;;;;;;5052483;28;27428;-44
2020/12/24 07:52:35;;;;;;;3.10;1.40;;;6.80;97.10;;;;;;5066460;28;27463;-44
2020/12/24 07:55:19;;;;;;;4.85;1.60;;;6.90;97.00;;;;;;5065111;28;27483;-44
2020/12/24 07:58:10;;;;;;;5.90;1.77;;;6.90;96.90;;;;;;5066173;28;27475;-44
2020/12/24 08:00:56;;;;;;;7.70;1.55;;;7.00;96.80;;;;;;5066539;28;27321;-44
2020/12/24 08:03:40;;;;;;;4.00;1.55;;;7.10;96.60;;;;;;5066538;28;27341;-45
2020/12/24 08:06:25;;;;;;;4.93;1.30;;;7.20;96.50;;;;;;5063215;28;27354;-45
2020/12/24 08:09:11;;;;;;;6.18;1.55;;;7.30;96.40;;;;;;5066344;28;28017;-44
2020/12/24 08:11:59;;;;;;;4.82;1.55;;;7.40;96.20;;;;;;5066326;28;27420;-44
2020/12/24 08:14:44;;;;;;;5.70;1.35;;;7.50;95.80;;;;;;5066394;28;26853;-44
2020/12/24 08:17:32;;;;;;;3.72;1.10;;;7.50;95.60;;;;;;5066231;28;27420;-45
2020/12/24 08:20:16;;;;;;;5.07;1.20;;;7.50;95.50;;;;;;5051353;28;27478;-45
2020/12/24 08:23:09;;;;;;;6.80;1.15;;;7.60;95.50;;;;;;5036721;28;27593;-43
2020/12/24 08:25:55;;;;;;;4.18;1.20;;;7.60;95.50;;;;;;5034646;28;27472;-45
2020/12/24 08:28:56;;;;;;;6.80;2.38;;;7.70;95.50;;;;;;5051086;28;27455;-44
2020/12/24 08:31:41;;;;;;;4.63;0.82;;;7.70;95.40;;;;;;5065698;28;27408;-45
2020/12/24 08:34:26;;;;;;;4.28;1.05;;;7.70;95.30;;;;;;5065931;28;27331;-45
2020/12/24 08:37:11;;;;;;;7.13;1.00;;;7.70;95.30;;;;;;5066008;28;27392;-45
2020/12/24 08:39:56;;;;;;;4.60;1.08;;;7.70;95.20;;;;;;5050485;28;27339;-45
2020/12/24 08:42:40;;;;;;;2.33;0.60;;;7.70;95.20;;;;;;5065888;28;27329;-44
2020/12/24 08:45:25;;;;;;;3.22;0.90;;;7.70;95.10;;;;;;5036790;28;27451;-44
2020/12/24 08:48:11;;;;;;;3.17;0.80;;;7.60;95.20;;;;;;5065178;28;27584;-45
2020/12/24 08:50:55;;;;;;;3.72;0.90;;;7.60;95.20;;;;;;5036340;28;26980;-44
2020/12/24 08:53:40;;;;;;;1.98;0.85;;;7.50;95.10;;;;;;5065075;28;27459;-44
2020/12/24 08:56:25;;;;;;;3.45;0.77;;;7.50;95.30;;;;;;5065369;28;27375;-44
2020/12/24 08:59:16;;;;;;;4.10;1.08;;;7.50;95.30;;;;;;5036460;28;27343;-45
2020/12/24 09:02:01;;;;;;;2.83;0.90;;;7.50;95.50;;;;;;5065571;28;27391;-44
2020/12/24 09:04:53;;;;;;;3.75;0.82;;;7.40;95.50;;;;;;5065453;28;27463;-44
2020/12/24 09:07:42;;;;;;;2.50;0.80;;;7.40;95.40;;;;;;5065152;28;27417;-46
2020/12/24 09:10:27;;;;;;;4.18;0.73;;;7.50;95.40;;;;;;5051307;28;27487;-44
2020/12/24 09:13:11;;;;;;;0.82;0.60;;;7.60;95.40;;;;;;5065339;28;26928;-44
2020/12/24 09:15:56;;;;;;;2.67;0.60;;;7.70;95.10;;;;;;5064992;28;27478;-44
2020/12/24 09:18:40;;;;;;;2.63;0.60;;;7.80;94.80;;;;;;5065156;28;27481;-45
2020/12/24 09:21:25;;;;;;;2.90;0.80;;;7.90;94.90;;;;;;5046947;28;27459;-45
2020/12/24 09:24:11;;;;;;;5.03;0.90;;;8.00;94.60;;;;;;5065321;28;27473;-44
2020/12/24 09:26:56;;;;;;;3.80;0.80;;;8.10;94.50;;;;;;5064925;28;27424;-43
2020/12/24 09:29:40;;;;;;;1.65;0.60;;;8.30;94.50;;;;;;5049945;28;27509;-44
2020/12/24 09:32:25;;;;;;;1.45;0.60;;;8.40;94.20;;;;;;5064954;28;27417;-44
2020/12/24 09:35:10;;;;;;;1.50;0.82;;;8.50;93.90;;;;;;5065120;28;27451;-44
2020/12/24 09:37:54;;;;;;;1.98;0.63;;;8.70;93.80;;;;;;5064394;28;27408;-44
2020/12/24 09:40:39;;;;;;;6.50;1.52;;;8.90;93.60;;;;;;5065044;28;27513;-45
2020/12/24 09:43:24;;;;;;;3.58;0.90;;;9.00;93.50;;;;;;5064274;28;27479;-44
2020/12/24 09:46:08;;;;;;;1.77;0.80;;;9.00;93.20;;;;;;5049681;28;27436;-44
2020/12/24 09:48:53;;;;;;;1.20;0.60;;;8.90;93.10;;;;;;5049587;28;27506;-44
2020/12/24 09:51:37;;;;;;;1.77;0.90;;;8.90;93.20;;;;;;5064834;28;27467;-44
2020/12/24 09:54:22;;;;;;;2.50;1.02;;;8.90;93.20;;;;;;5064335;28;27623;-44
2020/12/24 09:57:06;;;;;;;2.80;1.23;;;8.90;93.10;;;;;;5064553;28;27348;-44
2020/12/24 09:59:51;;;;;;;3.08;1.10;;;8.90;93.10;;;;;;5064438;28;27396;-45
2020/12/24 10:02:36;;;;;;;1.48;1.00;;;8.90;93.00;;;;;;5064418;28;27385;-44
2020/12/24 10:05:21;;;;;;;1.80;1.48;;;8.90;93.00;;;;;;5064430;28;27432;-44
2020/12/24 10:08:05;;;;;;;4.20;1.60;;;8.90;92.90;;;;;;5046518;28;27446;-44
2020/12/24 10:10:50;;;;;;;5.95;1.40;;;8.90;92.70;;;;;;5063867;28;27325;-44
2020/12/24 10:13:34;;;;;;;3.90;1.00;;;9.00;92.80;;;;;;5064594;28;27369;-42
2020/12/24 10:16:25;;;;;;;3.58;1.20;;;9.00;92.50;;;;;;5064554;28;27371;-44
2020/12/24 10:19:10;;;;;;;6.95;1.40;;;9.00;92.70;;;;;;5064266;28;27586;-43
2020/12/24 10:21:54;;;;;;;6.88;1.33;;;8.90;92.70;;;;;;5064118;28;27481;-44
2020/12/24 10:24:40;;;;;;;2.20;0.95;;;8.90;92.70;;;;;;5064082;28;27481;-44
2020/12/24 10:27:25;;;;;;;3.03;0.70;;;8.90;92.80;;;;;;5064151;28;27479;-44
2020/12/24 10:30:09;;;;;;;3.03;0.90;;;9.00;92.80;;;;;;5061142;28;27452;-45
2020/12/24 10:32:54;;;;;;;3.90;0.90;;;9.00;92.80;;;;;;5064285;28;27412;-45
2020/12/24 10:35:41;;;;;;;3.95;1.15;;;9.10;92.80;;;;;;5063940;28;27467;-44
2020/12/24 10:38:27;;;;;;;2.88;1.10;;;9.10;92.90;;;;;;5063700;28;27637;-46
2020/12/24 10:41:15;;;;;;;4.43;0.90;;;9.20;92.90;;;;;;5063910;28;27400;-44
2020/12/24 10:43:59;;;;;;;2.15;0.82;;;9.40;92.80;;;;;;5063878;28;27373;-45
2020/12/24 10:46:44;;;;;;;3.67;1.08;;;9.60;92.50;;;;;;5060064;28;27305;-44
2020/12/24 10:49:29;;;;;;;3.85;0.90;;;9.80;92.30;;;;;;5066212;28;27379;-45
2020/12/24 10:52:13;;;;;;;1.88;0.80;;;9.90;91.80;;;;;;5049303;28;27384;-44
2020/12/24 10:54:58;;;;;;;3.10;0.98;;;10.00;91.60;;;;;;5066934;28;27392;-44
2020/12/24 10:57:42;;;;;;;1.25;0.75;;;10.10;91.50;;;;;;5067317;28;27420;-44
2020/12/24 11:00:27;;;;;;;2.45;1.13;;;10.20;91.30;;;;;;5052997;28;27463;-45
2020/12/24 11:03:12;;;;;;;1.92;0.75;;;10.20;91.10;;;;;;5067338;28;27464;-47
2020/12/24 11:05:57;;;;;;;1.58;0.70;;;10.30;91.00;;;;;;5067056;28;27475;-45
2020/12/24 11:08:41;;;;;;;2.92;0.85;;;10.30;90.90;;;;;;5066885;28;27472;-45
2020/12/24 11:11:26;;;;;;;0.82;0.70;;;10.30;90.60;;;;;;5067448;28;27424;-46
2020/12/24 11:14:10;;;;;;;3.22;1.00;;;10.30;90.50;;;;;;5064103;28;27386;-45
2020/12/24 11:16:58;;;;;;;2.80;1.85;;;10.40;90.30;;;;;;5067251;28;27519;-44
2020/12/24 11:19:43;;;;;;;2.38;0.73;;;10.40;90.30;;;;;;5063778;28;27389;-42
2020/12/24 11:22:28;;;;;;;1.25;0.60;;;10.40;90.00;;;;;;5067347;28;26904;-44
2020/12/24 11:25:13;;;;;;;1.98;0.70;;;10.40;90.00;;;;;;5066970;28;27392;-44
2020/12/24 11:27:57;;;;;;;0.68;0.40;;;10.40;89.70;;;;;;5067401;28;27905;-45
2020/12/24 11:30:42;;;;;;;1.63;0.52;;;10.40;89.40;;;;;;5067064;28;27490;-44
2020/12/24 11:33:26;;;;;;;2.05;0.52;;;10.40;89.00;;;;;;5064140;28;27388;-47
2020/12/24 11:36:11;;;;;;;1.02;0.68;;;10.30;89.00;;;;;;5067042;28;27455;-45
2020/12/24 11:38:56;;;;;;;0.73;0.60;;;10.30;89.20;;;;;;5066496;28;27406;-45
2020/12/24 11:41:40;;;;;;;1.67;0.65;;;10.20;89.10;;;;;;5066636;28;27479;-46
2020/12/24 11:44:25;;;;;;;1.73;0.70;;;10.20;89.00;;;;;;5066708;28;27509;-44
2020/12/24 11:47:09;;;;;;;1.95;0.75;;;10.10;89.60;;;;;;5066551;28;26994;-45
2020/12/24 11:49:54;;;;;;;2.63;0.77;;;10.10;89.60;;;;;;5066771;28;27468;-44
2020/12/24 11:52:39;;;;;;;2.22;0.82;;;10.10;90.00;;;;;;5066726;28;27473;-45
2020/12/24 11:55:23;;;;;;;1.23;0.80;;;10.00;90.00;;;;;;5077415;28;27792;-44
2020/12/24 11:58:08;;;;;;;2.50;0.70;;;10.10;90.00;;;;;;5086587;28;27481;-45
2020/12/24 12:00:52;;;;;;;0.80;0.60;;;10.10;89.90;;;;;;5086149;28;27903;-45
2020/12/24 12:03:37;;;;;;;2.67;1.02;;;10.10;89.60;;;;;;5083623;28;27537;-46
2020/12/24 12:06:21;;;;;;;1.80;0.70;;;10.20;89.20;;;;;;5086823;28;27381;-45
2020/12/24 12:09:06;;;;;;;1.10;0.73;;;10.30;88.80;;;;;;5086543;28;26923;-46
2020/12/24 12:11:51;;;;;;;3.85;0.73;;;10.40;88.60;;;;;;5086495;28;27992;-44
2020/12/24 12:14:36;;;;;;;4.50;0.60;;;10.40;87.80;;;;;;5086390;28;27382;-44
2020/12/24 12:17:22;;;;;;;2.10;0.77;;;10.50;88.10;;;;;;5086611;28;27496;-46
2020/12/24 12:20:06;;;;;;;0.75;0.50;;;10.60;87.70;;;;;;5086275;28;27385;-43
2020/12/24 12:22:52;;;;;;;2.03;0.70;;;10.70;87.30;;;;;;5086532;28;27943;-45
2020/12/24 12:25:37;;;;;;;1.00;0.70;;;10.80;86.70;;;;;;5086549;28;27338;-45
2020/12/24 12:28:22;;;;;;;1.23;0.50;;;10.90;86.40;;;;;;5086512;28;27320;-45
2020/12/24 12:31:06;;;;;;;1.00;0.65;;;10.90;85.90;;;;;;5085976;28;27361;-45
2020/12/24 12:33:52;;;;;;;0.63;0.57;;;10.80;86.10;;;;;;5082044;28;27850;-44
2020/12/24 12:36:37;;;;;;;0.77;0.60;;;10.80;86.30;;;;;;5085551;28;27392;-44
2020/12/24 12:39:22;;;;;;;1.98;1.00;;;10.70;86.00;;;;;;5086129;28;27413;-45
2020/12/24 12:42:07;;;;;;;1.45;0.63;;;10.60;86.40;;;;;;5086262;28;27366;-45
2020/12/24 12:44:51;;;;;;;4.13;0.80;;;10.50;86.60;;;;;;5086197;28;27352;-46
2020/12/24 12:47:39;;;;;;;1.60;0.75;;;10.40;86.70;;;;;;5085866;28;27407;-44
2020/12/24 12:50:24;;;;;;;1.52;0.82;;;10.40;87.00;;;;;;5085865;28;27465;-47
2020/12/24 12:53:09;;;;;;;2.13;0.80;;;10.40;87.30;;;;;;5085776;28;27403;-45
2020/12/24 12:55:54;;;;;;;1.45;0.82;;;10.30;87.30;;;;;;5085903;28;27981;-48
2020/12/24 12:58:39;;;;;;;3.42;0.80;;;10.30;87.80;;;;;;5082253;28;27431;-45
2020/12/24 13:01:24;;;;;;;1.90;0.70;;;10.20;88.00;;;;;;5085736;28;27485;-44
2020/12/24 13:04:09;;;;;;;2.72;1.00;;;10.20;88.10;;;;;;5085886;28;27468;-44
2020/12/24 13:06:54;;;;;;;1.50;0.70;;;10.20;88.50;;;;;;5085556;28;27449;-44
2020/12/24 13:09:39;;;;;;;1.70;0.85;;;10.20;88.30;;;;;;5085447;28;27536;-44
2020/12/24 13:12:23;;;;;;;3.17;1.10;;;10.20;88.80;;;;;;5084813;28;27426;-45
2020/12/24 13:15:07;;;;;;;1.73;0.80;;;10.10;88.80;;;;;;5085422;28;27485;-45
2020/12/24 13:17:52;;;;;;;2.50;1.08;;;10.10;88.80;;;;;;5085365;28;27398;-46
2020/12/24 13:20:36;;;;;;;0.90;0.68;;;10.10;88.60;;;;;;5085358;28;27385;-45
2020/12/24 13:23:21;;;;;;;2.67;0.77;;;10.20;88.30;;;;;;5085376;28;27324;-45
2020/12/24 13:26:06;;;;;;;2.08;0.43;;;10.20;88.00;;;;;;5085453;28;27341;-44
2020/12/24 13:28:50;;;;;;;1.50;0.77;;;10.20;87.90;;;;;;5085470;28;27397;-45
2020/12/24 13:31:35;;;;;;;1.83;0.77;;;10.30;87.80;;;;;;5085135;28;27403;-45
2020/12/24 13:34:19;;;;;;;1.88;1.05;;;10.30;87.60;;;;;;5085525;28;27458;-45
2020/12/24 13:37:04;;;;;;;3.67;1.90;;;10.30;87.60;;;;;;5085394;28;27324;-47
2020/12/24 13:39:49;;;;;;;2.28;1.10;;;10.30;87.30;;;;;;5084978;28;28004;-45
2020/12/24 13:42:33;;;;;;;2.00;1.25;;;10.20;87.60;;;;;;5081201;28;27420;-45
2020/12/24 13:45:18;;;;;;;1.52;1.13;;;10.20;87.80;;;;;;5085212;28;27418;-45
2020/12/24 13:48:03;;;;;;;2.75;1.00;;;10.20;87.80;;;;;;5085017;28;27402;-45
2020/12/24 13:50:47;;;;;;;3.95;1.13;;;10.30;87.80;;;;;;5084851;28;27569;-45
2020/12/24 13:53:32;;;;;;;1.85;1.00;;;10.40;87.70;;;;;;5080680;28;27419;-43
2020/12/24 13:56:17;;;;;;;2.22;0.93;;;10.40;87.10;;;;;;5064789;28;27484;-44
2020/12/24 13:59:02;;;;;;;2.17;1.00;;;10.40;87.00;;;;;;5064448;28;27397;-44
2020/12/24 14:01:54;;;;;;;3.05;0.93;;;10.50;87.00;;;;;;5063830;28;27522;-45
2020/12/24 14:04:39;;;;;;;0.73;0.73;;;10.50;87.10;;;;;;5064479;28;27470;-44
2020/12/24 14:07:25;;;;;;;2.45;1.40;;;10.40;86.90;;;;;;5049736;28;27483;-44
2020/12/24 14:10:10;;;;;;;1.90;0.80;;;10.40;86.90;;;;;;5064196;28;27450;-46
2020/12/24 14:12:54;;;;;;;2.38;0.90;;;10.30;87.10;;;;;;5064453;28;27397;-46
2020/12/24 14:15:39;;;;;;;2.85;1.30;;;10.20;87.30;;;;;;5064122;28;27485;-45
2020/12/24 14:18:23;;;;;;;2.00;1.15;;;10.10;87.50;;;;;;5063916;28;27495;-45
2020/12/24 14:21:07;;;;;;;4.07;1.50;;;10.10;87.90;;;;;;5064191;28;27434;-45
2020/12/24 14:23:52;;;;;;;2.13;1.45;;;10.00;88.00;;;;;;5063878;28;27444;-46
2020/12/24 14:26:37;;;;;;;2.03;1.15;;;10.00;88.20;;;;;;5064016;28;27405;-45
2020/12/24 14:29:22;;;;;;;2.35;1.55;;;9.90;87.90;;;;;;5064073;28;26931;-45
2020/12/24 14:32:07;;;;;;;2.13;1.10;;;9.90;88.40;;;;;;5064004;28;27411;-44